Time;durP1;ratioP1;P1;durP2;ratioP2;P2;SDS_P1;SDS_P2;PMS_P1;PMS_P2;Temp;Humidity;BMP_temperature;BMP_pressure;BME280_temperature;BME280_humidity;BME280_pressure;Samples;Min_cycle;Max_cycle;Signal;HPM_P1;HPM_P2
2023/01/03 00:00:01;;;;;;;8.65;4.55;;;;;;;0.40;100.00;102639.63;5061419;28;20047;-82
2023/01/03 00:02:26;;;;;;;8.63;4.40;;;;;;;0.40;100.00;102637.84;5064410;28;20037;-81
2023/01/03 00:04:51;;;;;;;13.40;5.43;;;;;;;0.37;100.00;102631.81;5059194;28;20127;-81
2023/01/03 00:07:32;;;;;;;8.15;4.63;;;;;;;0.30;100.00;102629.31;5056787;28;20029;-82
2023/01/03 00:09:59;;;;;;;5.90;4.05;;;;;;;0.22;100.00;102630.34;5056715;28;20029;-83
2023/01/03 00:12:25;;;;;;;8.75;4.05;;;;;;;0.14;100.00;102631.34;5055926;28;20418;-83
2023/01/03 00:14:51;;;;;;;7.65;3.95;;;;;;;0.09;100.00;102630.59;5055986;28;20484;-81
2023/01/03 00:17:18;;;;;;;7.55;4.72;;;;;;;0.08;100.00;102638.47;5056820;28;20053;-82
2023/01/03 00:19:44;;;;;;;8.75;4.50;;;;;;;0.04;100.00;102639.41;5056350;28;20021;-80
2023/01/03 00:22:11;;;;;;;9.02;4.25;;;;;;;-0.03;100.00;102641.25;5057821;28;20040;-82
2023/01/03 00:24:37;;;;;;;8.18;4.55;;;;;;;-0.10;100.00;102637.88;5056341;28;20366;-82
2023/01/03 00:27:03;;;;;;;9.30;4.32;;;;;;;-0.13;100.00;102645.78;5055303;28;20129;-81
2023/01/03 00:29:29;;;;;;;6.55;4.20;;;;;;;-0.17;100.00;102646.72;5055376;28;20478;-82
2023/01/03 00:31:54;;;;;;;8.45;4.05;;;;;;;-0.21;100.00;102643.31;5055187;28;20029;-82
2023/01/03 00:34:20;;;;;;;9.65;4.25;;;;;;;-0.26;100.00;102644.25;5056213;28;20346;-82
2023/01/03 00:36:45;;;;;;;5.53;3.75;;;;;;;-0.32;100.00;102642.59;5054841;28;20036;-81
2023/01/03 00:39:11;;;;;;;7.97;4.25;;;;;;;-0.34;100.00;102647.00;5055383;28;20504;-81
2023/01/03 00:41:37;;;;;;;5.10;3.97;;;;;;;-0.34;100.00;102648.75;5054692;28;20044;-82
2023/01/03 00:44:02;;;;;;;9.00;4.03;;;;;;;-0.36;100.00;102647.03;5054703;28;20033;-82
2023/01/03 00:46:28;;;;;;;6.60;3.90;;;;;;;-0.33;100.00;102651.34;5053477;28;20027;-82
2023/01/03 00:48:54;;;;;;;7.78;3.88;;;;;;;-0.32;100.00;102657.44;5054210;28;20033;-81
2023/01/03 00:51:23;;;;;;;6.28;4.65;;;;;;;-0.33;100.00;102642.63;5054676;28;20367;-81
2023/01/03 00:53:50;;;;;;;7.07;4.03;;;;;;;-0.32;100.00;102653.06;5054153;28;20067;-80
2023/01/03 00:56:19;;;;;;;7.35;4.10;;;;;;;-0.30;100.00;102647.81;5053492;28;20052;-82
2023/01/03 00:58:45;;;;;;;6.47;4.00;;;;;;;-0.28;100.00;102651.28;5054794;28;20032;-81
2023/01/03 01:01:18;;;;;;;6.80;4.60;;;;;;;-0.25;100.00;102653.84;5054134;28;20389;-82
2023/01/03 01:03:47;;;;;;;7.60;3.90;;;;;;;-0.25;100.00;102648.63;5054871;28;20029;-82
2023/01/03 01:06:15;;;;;;;6.18;4.13;;;;;;;-0.27;100.00;102647.75;5054654;28;20322;-81
2023/01/03 01:08:43;;;;;;;7.32;4.15;;;;;;;-0.33;100.00;102648.72;5054029;28;20043;-81
2023/01/03 01:11:09;;;;;;;7.82;4.22;;;;;;;-0.37;100.00;102641.84;5053938;28;20259;-81
2023/01/03 01:13:35;;;;;;;6.57;4.30;;;;;;;-0.38;100.00;102650.56;5052983;28;20029;-81
2023/01/03 01:16:21;;;;;;;4.93;3.60;;;;;;;-0.43;100.00;102650.63;5053602;28;20037;-81
2023/01/03 01:18:48;;;;;;;6.15;3.60;;;;;;;-0.48;100.00;102644.59;5054267;28;20028;-82
2023/01/03 01:21:17;;;;;;;12.65;4.00;;;;;;;-0.50;100.00;102646.38;5052447;28;20226;-82
2023/01/03 01:23:44;;;;;;;8.35;3.58;;;;;;;-0.52;100.00;102649.88;5053194;28;20028;-81
2023/01/03 01:26:13;;;;;;;7.93;3.97;;;;;;;-0.57;100.00;102661.31;5053278;28;20029;-81
2023/01/03 01:28:38;;;;;;;7.63;4.03;;;;;;;-0.57;100.00;102655.19;5054002;28;20029;-81
2023/01/03 01:31:05;;;;;;;8.82;4.00;;;;;;;-0.51;100.00;102656.88;5053242;28;20035;-81
2023/01/03 01:33:33;;;;;;;6.13;3.95;;;;;;;-0.44;100.00;102664.59;5053931;28;20533;-81
2023/01/03 01:36:05;;;;;;;7.68;4.30;;;;;;;-0.37;100.00;102671.47;5053405;28;20060;-80
2023/01/03 01:38:30;;;;;;;5.93;3.97;;;;;;;-0.32;100.00;102665.28;5053301;28;20048;-83
2023/01/03 01:40:56;;;;;;;5.70;3.95;;;;;;;-0.26;100.00;102670.44;5053743;28;20020;-82
2023/01/03 01:46:30;;;;;;;5.88;4.07;;;;;;;-0.19;100.00;102667.69;5053236;28;20044;-82
2023/01/03 01:49:02;;;;;;;7.53;4.63;;;;;;;-0.13;100.00;102677.19;5052913;28;20021;-80
2023/01/03 01:51:31;;;;;;;7.78;4.10;;;;;;;-0.08;100.00;102677.97;5053452;28;20025;-81
2023/01/03 01:53:59;;;;;;;9.80;4.40;;;;;;;-0.06;100.00;102676.22;5052694;28;20027;-80
2023/01/03 01:56:29;;;;;;;8.93;4.68;;;;;;;-0.09;100.00;102681.50;5053163;28;20025;-81
2023/01/03 01:58:55;;;;;;;5.55;3.40;;;;;;;-0.14;100.00;102688.53;5051431;28;20104;-81
2023/01/03 02:01:23;;;;;;;6.75;3.97;;;;;;;-0.23;100.00;102681.69;5053072;28;20037;-81
2023/01/03 02:04:22;;;;;;;7.00;3.78;;;;;;;-0.30;100.00;102687.94;5052804;28;20103;-81
2023/01/03 02:06:48;;;;;;;4.53;3.50;;;;;;;-0.36;100.00;102694.13;5044308;28;20048;-81
2023/01/03 02:09:14;;;;;;;6.80;4.03;;;;;;;-0.39;100.00;102694.16;5052762;28;20029;-81
2023/01/03 02:11:42;;;;;;;5.10;3.67;;;;;;;-0.47;100.00;102690.78;5052910;28;20358;-81
2023/01/03 02:14:10;;;;;;;5.13;3.42;;;;;;;-0.54;100.00;102691.75;5052920;28;20021;-80
2023/01/03 02:17:06;;;;;;;4.90;3.20;;;;;;;-0.60;100.00;102684.00;5053269;28;20032;-81
2023/01/03 02:19:43;;;;;;;7.65;3.35;;;;;;;-0.65;100.00;102683.22;5053043;28;20025;-80
2023/01/03 02:22:32;;;;;;;4.40;3.03;;;;;;;-0.74;100.00;102682.44;5052327;28;20037;-81
2023/01/03 02:25:35;;;;;;;4.75;2.85;;;;;;;-0.83;100.00;102668.66;5045550;28;20155;-80
2023/01/03 02:28:32;;;;;;;10.13;4.60;;;;;;;-0.86;100.00;102671.31;5051370;28;20465;-77
2023/01/03 02:31:23;;;;;;;6.72;3.92;;;;;;;-0.85;100.00;102673.91;5052284;28;20029;-82
2023/01/03 02:34:17;;;;;;;5.15;3.95;;;;;;;-0.88;100.00;102668.72;5052830;28;20107;-81
2023/01/03 02:36:57;;;;;;;6.53;3.83;;;;;;;-0.90;100.00;102662.63;5054762;28;20079;-80
2023/01/03 02:39:37;;;;;;;7.72;4.30;;;;;;;-0.94;100.00;102669.66;5055947;28;20539;-82
2023/01/03 02:45:11;;;;;;;6.53;3.53;;;;;;;-1.02;100.00;102665.41;5056601;28;20075;-81
2023/01/03 02:47:45;;;;;;;5.20;3.17;;;;;;;-1.06;100.00;102664.56;5056592;28;20031;-82
2023/01/03 02:50:13;;;;;;;6.45;3.72;;;;;;;-1.09;100.00;102659.38;5056125;28;20384;-81
2023/01/03 02:52:40;;;;;;;7.00;3.92;;;;;;;-1.12;100.00;102660.31;5056433;28;20055;-82
2023/01/03 02:55:13;;;;;;;5.80;3.90;;;;;;;-1.17;100.00;102658.63;5055972;28;20099;-81
2023/01/03 02:57:55;;;;;;;6.40;3.60;;;;;;;-1.22;100.00;102661.28;5056335;28;20025;-82
2023/01/03 03:00:22;;;;;;;;;;;;;;;-1.28;100.00;102657.00;5056591;28;20120;-79
2023/01/03 03:02:53;;;;;;;4.53;3.47;;;;;;;-1.33;100.00;102664.03;5056317;28;19905;-79
2023/01/03 03:05:25;;;;;;;5.85;3.45;;;;;;;-1.39;100.00;102663.22;5055695;28;20470;-82
2023/01/03 03:07:51;;;;;;;6.18;3.53;;;;;;;-1.43;100.00;102662.41;5056515;28;20108;-80
2023/01/03 03:13:14;;;;;;;6.88;3.78;;;;;;;-1.51;100.00;102665.09;5055976;28;20040;-81
2023/01/03 03:15:53;;;;;;;9.18;4.85;;;;;;;-1.55;100.00;102666.03;5056163;28;20092;-81
2023/01/03 03:18:41;;;;;;;7.80;4.45;;;;;;;-1.54;100.00;102667.72;5055553;28;20074;-81
2023/01/03 03:26:46;;;;;;;6.75;4.40;;;;;;;-1.52;100.00;102663.38;5056073;28;20082;-81
2023/01/03 03:29:16;;;;;;;13.57;6.65;;;;;;;-1.50;100.00;102653.75;5055254;28;20032;-81
2023/01/03 03:31:46;;;;;;;8.00;5.40;;;;;;;-1.45;100.00;102656.31;5056201;28;20100;-81
2023/01/03 03:34:24;;;;;;;8.88;5.53;;;;;;;-1.40;100.00;102651.94;5055617;28;20032;-80
2023/01/03 03:36:57;;;;;;;9.88;6.20;;;;;;;-1.35;100.00;102652.72;5055878;28;20036;-80
2023/01/03 03:45:17;;;;;;;11.82;7.28;;;;;;;-1.16;100.00;102642.94;5054585;28;20051;-81
2023/01/03 03:47:45;;;;;;;8.07;5.75;;;;;;;-1.19;100.00;102634.28;5054131;28;20021;-80
2023/01/03 03:50:36;;;;;;;10.48;6.40;;;;;;;-1.25;100.00;102632.59;5054516;28;20028;-81
2023/01/03 03:53:06;;;;;;;13.93;6.30;;;;;;;-1.25;100.00;102635.22;5054415;28;20036;-81
2023/01/03 03:55:35;;;;;;;16.77;7.55;;;;;;;-1.26;100.00;102639.56;5053966;28;20036;-80
2023/01/03 03:58:06;;;;;;;12.98;7.28;;;;;;;-1.24;100.00;102642.16;5054199;28;20481;-80
2023/01/03 04:00:34;;;;;;;14.77;8.05;;;;;;;-1.16;100.00;102647.31;5053830;28;20029;-80
2023/01/03 04:03:03;;;;;;;18.60;10.15;;;;;;;-1.07;100.00;102649.78;5054728;28;20533;-80
2023/01/03 04:05:35;;;;;;;26.55;11.90;;;;;;;-0.89;100.00;102654.75;5053297;28;20483;-81
2023/01/03 04:08:00;;;;;;;25.58;12.55;;;;;;;-0.65;100.00;102659.69;5053897;28;20057;-80
2023/01/03 04:10:26;;;;;;;21.55;11.40;;;;;;;-0.57;100.00;102663.03;5054173;28;20032;-80
2023/01/03 04:12:51;;;;;;;21.48;10.77;;;;;;;-0.46;100.00;102655.91;5054734;28;20024;-81
2023/01/03 04:15:17;;;;;;;29.27;12.88;;;;;;;-0.36;100.00;102659.22;5054424;28;20036;-81
2023/01/03 04:17:44;;;;;;;22.95;12.43;;;;;;;-0.21;100.00;102665.97;5054276;28;20127;-80
2023/01/03 04:20:10;;;;;;;23.45;12.82;;;;;;;-0.10;100.00;102671.06;5054155;28;20388;-81
2023/01/03 04:22:35;;;;;;;26.40;13.57;;;;;;;-0.08;100.00;102661.41;5052376;28;20401;-80
2023/01/03 04:25:01;;;;;;;27.13;13.77;;;;;;;-0.06;100.00;102663.13;5053833;28;20037;-80
2023/01/03 04:27:27;;;;;;;32.00;14.73;;;;;;;-0.06;100.00;102665.75;5053114;28;20016;-80
2023/01/03 04:29:52;;;;;;;29.80;14.50;;;;;;;-0.07;100.00;102671.84;5053778;28;20522;-80
2023/01/03 04:32:17;;;;;;;36.08;15.85;;;;;;;-0.06;100.00;102662.25;5054178;28;20021;-80
2023/01/03 04:34:43;;;;;;;28.48;14.95;;;;;;;-0.03;100.00;102652.59;5053538;28;20350;-79
2023/01/03 04:37:08;;;;;;;29.27;15.57;;;;;;;-0.02;100.00;102656.94;5053829;28;20480;-80
2023/01/03 04:39:33;;;;;;;37.20;16.38;;;;;;;-0.01;100.00;102663.91;5014642;28;1119567;-80
2023/01/03 04:42:00;;;;;;;25.58;14.60;;;;;;;-0.03;100.00;102655.22;5053233;28;20348;-80
2023/01/03 04:44:26;;;;;;;31.80;16.33;;;;;;;-0.07;100.00;102660.53;5053970;28;20043;-80
2023/01/03 04:46:52;;;;;;;24.10;14.80;;;;;;;-0.10;100.00;102656.22;5054775;28;20072;-80
2023/01/03 04:49:17;;;;;;;27.63;15.05;;;;;;;-0.11;100.00;102657.09;5054347;28;20060;-80
2023/01/03 04:51:43;;;;;;;37.88;17.80;;;;;;;-0.13;100.00;102658.03;5053687;28;20060;-80
2023/01/03 04:54:08;;;;;;;26.40;14.90;;;;;;;-0.16;100.00;102656.31;5054558;28;20476;-80
2023/01/03 04:56:35;;;;;;;34.47;17.60;;;;;;;-0.21;100.00;102648.53;5052596;28;20441;-80
2023/01/03 04:59:01;;;;;;;24.55;15.50;;;;;;;-0.20;100.00;102652.00;5053538;28;20028;-80
2023/01/03 05:01:27;;;;;;;32.95;18.08;;;;;;;-0.16;100.00;102656.31;5053833;28;20062;-80
2023/01/03 05:04:00;;;;;;;41.10;19.33;;;;;;;-0.02;100.00;102650.84;5053796;28;20021;-79
2023/01/03 05:06:26;;;;;;;39.17;19.35;;;;;;;-0.01;100.00;102652.56;5053662;28;20028;-78
2023/01/03 05:08:51;;;;;;;35.05;17.60;;;;;;;-0.04;100.00;102644.78;5054011;28;20056;-80
2023/01/03 05:11:17;;;;;;;65.15;22.83;;;;;;;-0.07;100.00;102636.97;5053806;28;20474;-80
2023/01/03 05:13:42;;;;;;;42.40;19.80;;;;;;;-0.08;100.00;102646.56;5053214;28;20037;-80
2023/01/03 05:16:12;;;;;;;38.53;19.88;;;;;;;-0.06;100.00;102650.03;5054443;28;20033;-79
2023/01/03 05:18:38;;;;;;;31.40;18.77;;;;;;;-0.07;100.00;102650.91;5059303;28;20365;-79
2023/01/03 05:26:39;;;;;;;43.00;22.00;;;;;;;-0.04;100.00;102655.25;5053564;28;20106;-80
2023/01/03 05:29:05;;;;;;;39.03;20.02;;;;;;;0.03;100.00;102653.38;5054361;28;20028;-79
2023/01/03 05:31:31;;;;;;;41.70;22.38;;;;;;;0.13;100.00;102649.72;5053298;28;20044;-79
2023/01/03 05:33:56;;;;;;;48.78;22.77;;;;;;;0.28;100.00;102636.31;5053540;28;20032;-80
2023/01/03 05:36:21;;;;;;;48.58;23.75;;;;;;;0.41;100.00;102629.13;5053391;28;20029;-80
2023/01/03 05:38:47;;;;;;;67.55;27.60;;;;;;;0.52;100.00;102642.00;5051425;28;20045;-80
2023/01/03 05:41:58;;;;;;;63.35;28.08;;;;;;;0.62;100.00;102634.81;5053181;28;20042;-80
2023/01/03 05:43:59;;;;;;;58.10;26.75;;;;;;;0.69;100.00;102637.28;5052840;28;20041;-80
2023/01/03 05:46:24;;;;;;;52.63;26.35;;;;;;;0.77;100.00;102636.28;5053014;28;20031;-81
2023/01/03 05:48:49;;;;;;;58.03;27.85;;;;;;;0.84;100.00;102632.63;5052714;28;20199;-81
2023/01/03 05:51:15;;;;;;;50.13;25.55;;;;;;;0.90;100.00;102629.88;5055340;28;20071;-79
2023/01/03 05:53:40;;;;;;;63.42;27.73;;;;;;;0.97;100.00;102627.97;5051621;28;20033;-79
2023/01/03 05:56:06;;;;;;;66.47;29.05;;;;;;;1.05;100.00;102631.31;5053168;28;20516;-80
2023/01/03 05:58:31;;;;;;;56.55;27.88;;;;;;;1.13;100.00;102624.13;5051680;28;20366;-79
2023/01/03 06:00:56;;;;;;;60.15;27.52;;;;;;;1.19;100.00;102623.97;5052630;28;20481;-79
2023/01/03 06:03:22;;;;;;;53.20;26.60;;;;;;;1.23;100.00;102627.41;5052870;28;20044;-78
2023/01/03 06:05:47;;;;;;;61.45;28.00;;;;;;;1.30;100.00;102625.50;5051063;28;20465;-78
2023/01/03 06:08:13;;;;;;;62.80;27.92;;;;;;;1.33;100.00;102626.31;5053390;28;20116;-80
2023/01/03 06:10:39;;;;;;;61.50;27.23;;;;;;;1.37;100.00;102629.72;5051991;28;20408;-79
2023/01/03 06:13:05;;;;;;;56.20;27.70;;;;;;;1.45;100.00;102634.78;5052546;28;20469;-79
2023/01/03 06:15:30;;;;;;;49.13;26.38;;;;;;;1.48;100.00;102635.56;5052652;28;20071;-80
2023/01/03 06:17:59;;;;;;;47.95;25.42;;;;;;;1.51;100.00;102637.28;5052599;28;20576;-79
2023/01/03 06:20:28;;;;;;;46.58;25.00;;;;;;;1.54;100.00;102639.81;5052235;28;20362;-79
2023/01/03 06:22:53;;;;;;;55.08;26.48;;;;;;;1.56;100.00;102644.13;5052213;28;20060;-79
2023/01/03 06:25:19;;;;;;;49.90;26.42;;;;;;;1.61;100.00;102656.28;5052234;28;20519;-79
2023/01/03 06:27:45;;;;;;;52.78;25.17;;;;;;;1.64;100.00;102645.69;5052407;28;20104;-78
2023/01/03 06:30:11;;;;;;;55.63;25.25;;;;;;;1.67;100.00;102643.00;5051264;28;20490;-79
2023/01/03 06:32:36;;;;;;;46.63;25.75;;;;;;;1.70;100.00;102640.28;5052586;28;20112;-79
2023/01/03 06:35:02;;;;;;;49.35;26.00;;;;;;;1.73;100.00;102627.97;5052110;28;20442;-80
2023/01/03 06:37:27;;;;;;;56.03;27.38;;;;;;;1.76;100.00;102621.78;5052426;28;20445;-77
2023/01/03 06:39:53;;;;;;;50.10;24.88;;;;;;;1.79;100.00;102618.22;5033867;28;20045;-77
2023/01/03 06:53:16;;;;;;;52.10;24.52;;;;;;;1.96;100.00;102636.16;5029685;28;20056;-76
2023/01/03 06:55:43;;;;;;;51.50;23.98;;;;;;;2.00;100.00;102632.56;5029160;28;20374;-78
2023/01/03 06:58:09;;;;;;;50.50;22.92;;;;;;;2.03;100.00;102637.72;5029459;28;20030;-79
2023/01/03 07:00:37;;;;;;;45.60;22.10;;;;;;;2.05;100.00;102626.28;5029641;28;20026;-76
2023/01/03 07:03:03;;;;;;;44.85;21.92;;;;;;;2.10;100.00;102613.88;5029356;28;20491;-75
2023/01/03 07:05:28;;;;;;;40.10;20.45;;;;;;;2.14;100.00;102617.31;5029415;28;20033;-78
2023/01/03 07:07:54;;;;;;;35.08;20.05;;;;;;;2.17;100.00;102626.88;5029014;28;20038;-76
2023/01/03 07:10:19;;;;;;;43.72;20.85;;;;;;;2.18;100.00;102632.09;5029425;28;20029;-76
2023/01/03 07:15:28;;;;;;;41.17;20.23;;;;;;;2.26;100.00;102634.50;5029296;28;20093;-75
2023/01/03 07:17:54;;;;;;;41.33;20.17;;;;;;;2.27;100.00;102628.34;5029137;28;20541;-74
2023/01/03 07:20:19;;;;;;;38.55;20.25;;;;;;;2.27;100.00;102623.09;5028938;28;20104;-75
2023/01/03 07:22:45;;;;;;;40.60;21.05;;;;;;;2.28;100.00;102623.06;5031281;28;20464;-75
2023/01/03 07:25:10;;;;;;;49.47;21.15;;;;;;;2.29;100.00;102626.53;5032734;28;20032;-75
2023/01/03 07:27:35;;;;;;;41.95;20.60;;;;;;;2.27;100.00;102621.31;5033123;28;20041;-75
2023/01/03 07:30:01;;;;;;;42.38;19.95;;;;;;;2.24;100.00;102626.66;5032339;28;20041;-75
2023/01/03 07:32:26;;;;;;;37.75;19.13;;;;;;;2.26;100.00;102631.88;5032933;28;20038;-75
2023/01/03 07:34:51;;;;;;;43.60;20.80;;;;;;;2.32;100.00;102638.72;5032008;28;20085;-75
2023/01/03 07:37:17;;;;;;;40.40;19.98;;;;;;;2.40;100.00;102647.25;5032557;28;20124;-75
2023/01/03 07:39:42;;;;;;;38.72;18.83;;;;;;;2.48;100.00;102650.56;5032578;28;20088;-75
2023/01/03 07:44:51;;;;;;;44.35;19.77;;;;;;;2.61;100.00;102640.53;5032475;28;20362;-76
2023/01/03 07:47:17;;;;;;;44.20;19.92;;;;;;;2.67;100.00;102635.09;5032482;28;20437;-75
2023/01/03 07:49:42;;;;;;;35.38;18.58;;;;;;;2.72;100.00;102641.09;5032262;28;20491;-75
2023/01/03 07:52:07;;;;;;;37.63;18.58;;;;;;;2.77;100.00;102631.31;5031983;28;20029;-75
2023/01/03 07:54:33;;;;;;;42.47;18.35;;;;;;;2.79;100.00;102629.50;5032510;28;20036;-75
2023/01/03 07:56:58;;;;;;;38.03;18.25;;;;;;;2.86;100.00;102621.44;5031960;28;20386;-75
2023/01/03 07:59:23;;;;;;;40.10;19.70;;;;;;;2.89;100.00;102627.47;5039901;28;20517;-76
2023/01/03 08:01:49;;;;;;;39.22;19.58;;;;;;;2.93;100.00;102628.25;5051824;28;20453;-76
2023/01/03 08:04:14;;;;;;;41.55;18.30;;;;;;;2.95;100.00;102631.69;5054093;28;20029;-76
2023/01/03 08:06:39;;;;;;;35.25;18.08;;;;;;;2.96;100.00;102625.53;5054845;28;20086;-77
2023/01/03 08:14:32;;;;;;;39.97;18.85;;;;;;;3.07;100.00;102638.34;5031862;28;20095;-77
2023/01/03 08:16:58;;;;;;;40.97;18.17;;;;;;;3.11;100.00;102638.19;5031676;28;20029;-77
2023/01/03 08:19:23;;;;;;;39.08;18.08;;;;;;;3.17;100.00;102640.63;5046923;28;20520;-78
2023/01/03 08:21:49;;;;;;;39.92;18.90;;;;;;;3.20;100.00;102636.22;5053853;28;20036;-80
2023/01/03 08:24:14;;;;;;;43.75;20.05;;;;;;;3.22;100.00;102648.38;5053689;28;20091;-80
2023/01/03 08:26:39;;;;;;;48.85;20.20;;;;;;;3.26;100.00;102651.81;5054665;28;20029;-79
2023/01/03 08:29:05;;;;;;;48.30;20.80;;;;;;;3.30;100.00;102649.03;5053844;28;20033;-80
2023/01/03 08:31:35;;;;;;;43.13;19.80;;;;;;;3.31;100.00;102645.50;5054941;28;20029;-80
2023/01/03 08:34:05;;;;;;;43.13;19.23;;;;;;;3.34;100.00;102648.03;5052771;28;20032;-80
2023/01/03 08:36:34;;;;;;;43.42;20.10;;;;;;;3.38;100.00;102648.78;5054361;28;20143;-80
2023/01/03 08:39:04;;;;;;;47.78;21.73;;;;;;;3.43;100.00;102641.59;5053830;28;20049;-79
2023/01/03 08:41:33;;;;;;;46.15;20.88;;;;;;;3.48;100.00;102639.69;5054141;28;20036;-80
2023/01/03 08:44:01;;;;;;;49.38;21.50;;;;;;;3.51;100.00;102642.22;5051980;28;20104;-79
2023/01/03 08:46:27;;;;;;;48.63;22.08;;;;;;;3.53;100.00;102639.53;5051483;28;20060;-79
2023/01/03 08:48:54;;;;;;;47.60;22.05;;;;;;;3.56;100.00;102651.75;5051760;28;20041;-79
2023/01/03 08:51:20;;;;;;;53.70;23.23;;;;;;;3.58;100.00;102640.25;5046284;28;20032;-80
2023/01/03 08:53:45;;;;;;;58.47;23.73;;;;;;;3.60;100.00;102627.91;5047487;28;20051;-82
2023/01/03 08:56:10;;;;;;;54.75;24.40;;;;;;;3.65;100.00;102640.91;5032501;28;20030;-78
2023/01/03 08:58:36;;;;;;;57.22;24.10;;;;;;;3.68;100.00;102632.91;5033652;28;20026;-76
2023/01/03 09:01:05;;;;;;;66.18;24.13;;;;;;;3.73;100.00;102635.41;5033001;28;20442;-79
2023/01/03 09:03:31;;;;;;;51.15;23.88;;;;;;;3.78;100.00;102636.97;5033093;28;20053;-79
2023/01/03 09:06:00;;;;;;;53.80;24.27;;;;;;;3.82;100.00;102638.59;5032686;28;20057;-78
2023/01/03 09:08:29;;;;;;;53.30;23.88;;;;;;;3.89;100.00;102632.19;5032986;28;20029;-78
2023/01/03 09:10:54;;;;;;;53.55;23.52;;;;;;;3.94;100.00;102623.28;5033697;28;20473;-77
2023/01/03 09:13:19;;;;;;;58.47;23.25;;;;;;;3.95;100.00;102622.38;5033286;28;20026;-77
2023/01/03 09:15:45;;;;;;;55.13;23.27;;;;;;;4.02;100.00;102629.16;5032858;28;20095;-77
2023/01/03 09:18:10;;;;;;;51.90;23.98;;;;;;;4.17;100.00;102635.66;5032700;28;20390;-81
2023/01/03 09:20:35;;;;;;;58.28;23.63;;;;;;;4.26;100.00;102630.06;5033332;28;20131;-79
2023/01/03 09:23:01;;;;;;;51.40;24.40;;;;;;;4.28;100.00;102628.22;5033055;28;20038;-80
2023/01/03 09:25:26;;;;;;;51.78;22.95;;;;;;;4.28;100.00;102630.00;5048800;28;20450;-81
2023/01/03 09:27:51;;;;;;;65.63;23.38;;;;;;;4.27;100.00;102626.53;5033736;28;20033;-79
2023/01/03 09:30:18;;;;;;;50.63;23.48;;;;;;;4.30;100.00;102629.06;5032390;28;20125;-76
2023/01/03 09:32:44;;;;;;;57.45;23.45;;;;;;;4.36;100.00;102630.59;5032535;28;20108;-73
2023/01/03 09:35:09;;;;;;;64.18;24.27;;;;;;;4.43;100.00;102625.97;5032100;28;20109;-74
2023/01/03 09:37:35;;;;;;;55.53;23.77;;;;;;;4.50;100.00;102628.31;5032202;28;20032;-74
2023/01/03 09:40:00;;;;;;;49.25;22.77;;;;;;;4.56;100.00;102633.38;5032455;28;20205;-73
2023/01/03 09:45:25;;;;;;;49.70;23.17;;;;;;;4.62;100.00;102644.63;5031299;28;20120;-75
2023/01/03 09:47:50;;;;;;;51.03;22.67;;;;;;;4.66;100.00;102638.28;5032386;28;20033;-75
2023/01/03 09:50:21;;;;;;;51.28;21.42;;;;;;;4.68;100.00;102645.25;5031709;28;20025;-75
2023/01/03 10:04:17;;;;;;;37.50;19.92;;;;;;;4.89;100.00;102659.41;5031939;28;20489;-74
2023/01/03 10:07:01;;;;;;;40.85;19.35;;;;;;;4.93;100.00;102658.38;5032258;28;20051;-75
2023/01/03 10:09:50;;;;;;;41.20;18.98;;;;;;;4.97;100.00;102652.97;5031530;28;20026;-74
2023/01/03 10:12:25;;;;;;;36.95;18.70;;;;;;;5.01;100.00;102655.44;5031512;28;20032;-74
2023/01/03 10:15:12;;;;;;;36.72;18.80;;;;;;;5.06;100.00;102657.91;5032054;28;20163;-74
2023/01/03 10:17:54;;;;;;;36.47;20.38;;;;;;;5.08;100.00;102651.66;5031987;28;20022;-75
2023/01/03 10:20:34;;;;;;;35.25;19.25;;;;;;;5.15;100.00;102661.97;5046917;28;20079;-71
2023/01/03 10:23:00;;;;;;;40.17;18.52;;;;;;;5.19;100.00;102664.44;5031912;28;20033;-76
2023/01/03 10:25:27;;;;;;;41.75;18.10;;;;;;;5.24;100.00;102665.13;5031184;28;20038;-73
2023/01/03 10:27:59;;;;;;;38.88;17.27;;;;;;;5.23;100.00;102665.19;5031817;28;20026;-77
2023/01/03 10:30:27;;;;;;;;;;;;;;;5.25;100.00;102671.25;5031812;28;20049;-76
2023/01/03 10:32:58;;;;;;;34.28;15.73;;;;;;;5.24;100.00;102659.84;5031858;28;19908;-75
2023/01/03 10:35:28;;;;;;;30.40;16.77;;;;;;;5.30;100.00;102656.13;5031262;28;20466;-72
2023/01/03 10:37:55;;;;;;;33.45;17.10;;;;;;;5.35;100.00;102658.56;5036810;28;20128;-82
2023/01/03 10:40:41;;;;;;;30.45;16.80;;;;;;;5.35;100.00;102662.06;5041349;28;20036;-81
2023/01/03 10:43:31;;;;;;;35.08;18.15;;;;;;;5.39;100.00;102657.50;5035361;28;20024;-78
2023/01/03 10:46:20;;;;;;;30.65;16.95;;;;;;;5.41;100.00;102664.47;5031654;28;20029;-77
2023/01/03 10:48:48;;;;;;;34.08;18.23;;;;;;;5.46;100.00;102657.22;5032248;28;20111;-80
2023/01/03 10:51:25;;;;;;;37.85;17.95;;;;;;;5.47;100.00;102658.94;5029345;28;20030;-77
2023/01/03 10:53:53;;;;;;;33.95;17.38;;;;;;;5.46;100.00;102651.94;5029087;28;20462;-77
2023/01/03 10:56:19;;;;;;;31.45;17.15;;;;;;;5.51;100.00;102656.16;5029096;28;20037;-76
2023/01/03 10:58:44;;;;;;;31.55;17.88;;;;;;;5.51;100.00;102649.13;5032679;28;20038;-77
2023/01/03 11:01:20;;;;;;;33.83;17.40;;;;;;;5.55;100.00;102649.84;5032968;28;20029;-78
2023/01/03 11:04:06;;;;;;;30.67;16.73;;;;;;;5.58;100.00;102647.97;5032576;28;20032;-77
2023/01/03 11:06:32;;;;;;;29.60;15.40;;;;;;;5.65;100.00;102641.47;5031962;28;20109;-77
2023/01/03 11:09:03;;;;;;;30.33;16.25;;;;;;;5.70;100.00;102635.16;5032672;28;20116;-77
2023/01/03 11:11:32;;;;;;;26.50;15.35;;;;;;;5.75;100.00;102638.47;5032454;28;20034;-77
2023/01/03 11:14:25;;;;;;;25.70;14.30;;;;;;;5.79;100.00;102637.41;5032496;28;20521;-76
2023/01/03 11:17:11;;;;;;;27.13;13.73;;;;;;;5.83;100.00;102633.72;5031556;28;20038;-74
2023/01/03 11:19:36;;;;;;;24.20;14.05;;;;;;;5.87;100.00;102631.78;5032090;28;20034;-76
2023/01/03 11:22:27;;;;;;;21.00;12.93;;;;;;;5.94;100.00;102620.94;5032720;28;20022;-76
2023/01/03 11:25:21;;;;;;;28.48;12.95;;;;;;;6.00;100.00;102618.06;5032155;28;20395;-76
2023/01/03 11:28:25;;;;;;;23.33;12.32;;;;;;;6.12;100.00;102615.78;5031924;28;20114;-77
2023/01/03 11:31:09;;;;;;;25.58;11.98;;;;;;;6.09;100.00;102608.88;5009814;28;20037;-75
2023/01/03 11:34:15;;;;;;;30.35;13.52;;;;;;;6.09;100.00;102610.63;5009188;28;20065;-76
2023/01/03 11:37:06;;;;;;;25.75;13.02;;;;;;;6.13;100.00;102593.72;4984341;28;20042;-75
2023/01/03 11:40:30;;;;;;;22.55;12.10;;;;;;;6.25;100.00;102590.53;5029570;28;20045;-75
2023/01/03 11:43:01;;;;;;;19.50;10.80;;;;;;;6.23;100.00;102587.13;4990024;28;20478;-75
2023/01/03 11:45:50;;;;;;;23.85;10.60;;;;;;;6.28;100.00;102592.19;5024151;28;20063;-75
2023/01/03 11:48:32;;;;;;;14.77;10.32;;;;;;;6.34;100.00;102598.09;5039801;28;20535;-76
2023/01/03 11:51:39;;;;;;;21.98;10.20;;;;;;;6.42;100.00;102578.34;5053913;28;20017;-76
2023/01/03 11:54:43;;;;;;;13.27;8.77;;;;;;;6.47;100.00;102584.31;5047470;28;20041;-75
2023/01/03 11:57:35;;;;;;;20.23;9.10;;;;;;;6.55;100.00;102582.16;5011163;28;20022;-74
2023/01/03 12:00:15;;;;;;;19.50;9.35;;;;;;;6.60;100.00;102571.34;5010738;28;20037;-75
2023/01/03 12:02:53;;;;;;;18.58;9.02;;;;;;;6.58;100.00;102574.06;5042128;28;20041;-75
2023/01/03 12:06:00;;;;;;;18.38;8.73;;;;;;;6.62;100.00;102564.22;5053423;28;20029;-75
2023/01/03 12:08:40;;;;;;;13.75;8.90;;;;;;;6.68;100.00;102559.50;5053467;28;20094;-74
2023/01/03 12:11:35;;;;;;;14.68;8.07;;;;;;;6.81;100.00;102558.94;5053699;28;20364;-74
2023/01/03 12:14:20;;;;;;;14.68;7.95;;;;;;;6.84;100.00;102561.44;5053820;28;20021;-75
2023/01/03 12:17:02;;;;;;;13.93;8.35;;;;;;;6.93;100.00;102550.41;5053830;28;20029;-75
2023/01/03 12:19:40;;;;;;;15.27;8.48;;;;;;;6.83;100.00;102555.28;5053540;28;20021;-77
2023/01/03 12:22:16;;;;;;;17.15;8.98;;;;;;;6.90;100.00;102563.78;5053894;28;20028;-75
2023/01/03 12:24:49;;;;;;;14.13;8.30;;;;;;;6.86;100.00;102565.72;5053758;28;20032;-77
2023/01/03 12:27:28;;;;;;;15.25;7.88;;;;;;;6.87;100.00;102572.72;5053725;28;20094;-76
2023/01/03 12:30:03;;;;;;;13.02;7.97;;;;;;;6.81;100.00;102564.22;5053825;28;20040;-76